createdAt,value
2023-01-20T00:04:06.194Z,54.08
2023-01-20T00:09:08.283Z,60.58
2023-01-20T00:14:10.876Z,62.13
2023-01-20T00:19:14.398Z,75.82
2023-01-20T00:24:16.470Z,75.07
2023-01-20T00:29:18.529Z,76.55
2023-01-20T00:34:20.614Z,76.68
2023-01-20T00:39:22.739Z,75.18
2023-01-20T00:44:24.868Z,68.72
2023-01-20T00:49:27.012Z,76.97
2023-01-20T00:54:29.049Z,77.22
2023-01-20T00:59:31.056Z,75.82
2023-01-20T01:04:33.108Z,75.85
2023-01-20T01:09:35.332Z,79.35
2023-01-20T01:14:37.348Z,79.90
2023-01-20T01:19:39.379Z,79.28
2023-01-20T01:24:44.256Z,88.03
2023-01-20T01:29:46.452Z,75.53
2023-01-20T01:34:48.548Z,80.80
2023-01-20T01:39:50.761Z,75.90
2023-01-20T01:45:11.801Z,77.05
2023-01-20T01:50:18.917Z,84.88
2023-01-20T01:55:25.821Z,72.30
2023-01-20T02:00:28.254Z,84.32
2023-01-20T02:05:30.803Z,71.30
2023-01-20T02:10:32.867Z,76.57
2023-01-20T02:15:48.044Z,74.57
2023-01-20T02:21:37.751Z,77.97
2023-01-20T02:27:08.581Z,72.05
2023-01-20T02:32:27.016Z,87.70
2023-01-20T02:37:35.905Z,94.90
2023-01-20T02:42:43.413Z,89.78
2023-01-20T02:47:56.556Z,90.50
2023-01-20T02:53:00.624Z,98.18
2023-01-20T02:58:10.715Z,93.55
2023-01-20T03:03:17.379Z,102.95
2023-01-20T03:08:21.682Z,98.45
2023-01-20T03:13:39.894Z,97.28
2023-01-20T03:18:42.071Z,107.82
2023-01-20T03:23:48.211Z,99.78
2023-01-20T03:28:50.526Z,104.25
2023-01-20T03:33:55.903Z,110.60
2023-01-20T03:38:58.807Z,107.40
2023-01-20T03:44:18.914Z,104.45
2023-01-20T03:49:33.754Z,91.87
2023-01-20T03:54:48.606Z,92.57
2023-01-20T03:59:52.326Z,87.97
2023-01-20T04:04:55.819Z,87.10
2023-01-20T04:10:05.425Z,90.00
2023-01-20T04:15:08.238Z,86.97
2023-01-20T04:20:13.355Z,83.82
2023-01-20T04:25:30.984Z,77.15
2023-01-20T04:30:33.063Z,79.80
2023-01-20T04:35:35.124Z,75.53
2023-01-20T04:40:37.195Z,71.65
2023-01-20T04:45:41.387Z,82.45
2023-01-20T04:50:43.501Z,86.15
2023-01-20T04:55:46.167Z,88.40
2023-01-20T05:00:48.523Z,84.38
2023-01-20T05:05:54.371Z,85.35
2023-01-20T05:10:56.604Z,85.07
2023-01-20T05:16:00.134Z,74.72
2023-01-20T05:21:05.568Z,73.30
2023-01-20T05:26:07.620Z,77.20
2023-01-20T05:31:09.980Z,81.05
2023-01-20T05:36:12.587Z,66.00
2023-01-20T05:41:14.715Z,68.22
2023-01-20T05:46:16.887Z,78.68
2023-01-20T05:51:19.289Z,71.70
2023-01-20T05:56:21.292Z,74.88
2023-01-20T06:01:23.471Z,74.20
2023-01-20T06:06:25.773Z,82.15
2023-01-20T06:11:27.811Z,75.03
2023-01-20T06:16:29.880Z,73.30
2023-01-20T06:21:32.171Z,72.38
2023-01-20T06:26:34.351Z,64.43
2023-01-20T06:31:36.388Z,68.22
2023-01-20T06:36:38.825Z,69.90
2023-01-20T06:41:40.886Z,67.30
2023-01-20T06:46:43.044Z,67.20
2023-01-20T06:51:47.732Z,68.88
2023-01-20T06:56:49.730Z,60.63
2023-01-20T07:01:52.803Z,67.05
2023-01-20T07:06:55.152Z,73.22
2023-01-20T07:11:57.275Z,63.65
2023-01-20T07:16:59.450Z,63.00
2023-01-20T07:22:01.627Z,58.97
2023-01-20T07:27:03.918Z,57.53
2023-01-20T07:32:05.972Z,53.17
2023-01-20T07:37:07.992Z,52.00
2023-01-20T07:42:10.173Z,55.78
2023-01-20T07:47:12.243Z,54.00
2023-01-20T07:52:14.369Z,56.33
2023-01-20T07:57:16.366Z,51.17
2023-01-20T08:02:18.453Z,49.78
2023-01-20T08:07:20.497Z,49.83
2023-01-20T08:12:23.644Z,58.40
2023-01-20T08:17:25.795Z,54.88
2023-01-20T08:22:27.928Z,49.70
2023-01-20T08:27:29.946Z,45.30
2023-01-20T08:32:32.365Z,46.28
2023-01-20T08:37:36.805Z,40.13
2023-01-20T08:42:39.486Z,42.47
2023-01-20T08:47:45.732Z,45.47
2023-01-20T08:52:48.174Z,42.90
2023-01-20T08:57:50.277Z,44.92
2023-01-20T09:02:52.445Z,44.63
2023-01-20T09:07:54.574Z,45.80
2023-01-20T09:12:56.607Z,50.92
2023-01-20T09:18:01.541Z,47.47
2023-01-20T09:23:03.593Z,46.95
2023-01-20T09:28:06.731Z,44.92
2023-01-20T09:33:12.659Z,42.72
2023-01-20T09:38:32.988Z,42.03
2023-01-20T09:43:55.414Z,39.07
2023-01-20T09:49:50.227Z,42.85
2023-01-20T09:54:59.100Z,42.72
2023-01-20T10:00:06.821Z,42.00
2023-01-20T10:05:13.795Z,41.92
2023-01-20T10:10:39.998Z,39.95
2023-01-20T10:15:45.708Z,39.25
2023-01-20T10:20:53.875Z,40.28
2023-01-20T10:26:04.996Z,47.42
2023-01-20T10:31:27.550Z,41.25
2023-01-20T10:36:31.122Z,41.40
2023-01-20T10:41:43.784Z,44.60
2023-01-20T10:47:13.796Z,44.83
2023-01-20T10:52:24.545Z,44.45
2023-01-20T11:02:34.983Z,50.55
2023-01-20T11:07:37.223Z,50.75
2023-01-20T11:12:41.736Z,83.13
2023-01-20T11:17:43.778Z,59.08
2023-01-20T11:22:48.508Z,47.22
2023-01-20T11:27:50.862Z,47.97
2023-01-20T11:33:19.686Z,44.95
2023-01-20T11:38:24.789Z,38.03
2023-01-20T11:43:35.595Z,40.63
2023-01-20T11:48:37.727Z,37.92
2023-01-20T11:53:39.889Z,42.42
2023-01-20T11:58:58.240Z,40.45
2023-01-20T12:04:26.880Z,40.72
2023-01-20T12:09:38.406Z,44.13
2023-01-20T12:14:49.129Z,37.28
2023-01-20T12:25:10.118Z,40.17
2023-01-20T12:30:41.248Z,39.85
2023-01-20T12:35:56.408Z,41.40
2023-01-20T12:41:03.488Z,40.85
2023-01-20T12:46:21.488Z,93.85
2023-01-20T12:51:42.535Z,44.17
2023-01-20T12:57:00.233Z,45.95
2023-01-20T13:02:22.634Z,44.22
2023-01-20T13:07:42.968Z,46.25
2023-01-20T13:13:08.580Z,38.20
2023-01-20T13:18:36.931Z,47.13
2023-01-20T13:23:39.214Z,80.15
2023-01-20T13:28:53.265Z,146.00
2023-01-20T13:34:21.082Z,139.10
2023-01-20T13:39:29.253Z,63.00
2023-01-20T13:44:42.184Z,45.67
2023-01-20T13:49:49.662Z,37.90
2023-01-20T13:54:52.001Z,32.83
2023-01-20T13:59:55.064Z,50.10
2023-01-20T14:04:58.710Z,56.83
2023-01-20T14:10:01.804Z,33.80
2023-01-20T14:15:04.153Z,40.65
2023-01-20T14:20:23.534Z,35.50
2023-01-20T14:25:26.834Z,32.63
2023-01-20T14:30:29.428Z,31.35
2023-01-20T14:35:34.096Z,28.10
2023-01-20T14:40:36.184Z,28.40
2023-01-20T14:45:41.569Z,33.40
2023-01-20T14:50:48.827Z,30.45
2023-01-20T14:56:07.377Z,37.22
2023-01-20T15:01:21.259Z,41.30
2023-01-20T15:06:24.703Z,38.17
2023-01-20T15:11:31.095Z,32.75
2023-01-20T15:16:35.888Z,32.70
2023-01-20T15:21:37.923Z,40.38
2023-01-20T15:26:40.036Z,36.60
2023-01-20T15:31:42.120Z,57.88
2023-01-20T15:36:46.205Z,45.10
2023-01-20T15:41:53.738Z,36.03
2023-01-20T15:46:57.530Z,51.28
2023-01-20T15:51:59.799Z,59.78
2023-01-20T15:57:01.833Z,37.97
2023-01-20T16:02:04.545Z,34.30
2023-01-20T16:07:12.382Z,35.45
2023-01-20T16:12:18.683Z,38.30
2023-01-20T16:17:21.626Z,35.30
2023-01-20T16:22:23.607Z,35.50
2023-01-20T16:27:25.614Z,33.72
2023-01-20T16:32:28.037Z,44.10
2023-01-20T16:37:30.042Z,39.53
2023-01-20T16:42:33.269Z,40.70
2023-01-20T16:47:35.320Z,44.42
2023-01-20T16:52:37.365Z,43.08
2023-01-20T16:57:39.449Z,47.67
2023-01-20T17:02:41.476Z,47.83
2023-01-20T17:07:43.547Z,45.17
2023-01-20T17:12:48.683Z,44.30
2023-01-20T17:17:54.571Z,43.47
2023-01-20T17:22:56.794Z,46.10
2023-01-20T17:27:58.901Z,45.28
2023-01-20T17:33:00.933Z,37.55
2023-01-20T17:38:03.039Z,52.70
2023-01-20T17:43:05.228Z,37.53
2023-01-20T17:48:07.264Z,37.97
2023-01-20T17:53:09.532Z,39.65
2023-01-20T17:58:11.611Z,36.38
2023-01-20T18:03:13.832Z,33.25
2023-01-20T18:08:15.948Z,31.33
2023-01-20T18:13:18.184Z,32.13
2023-01-20T18:18:20.378Z,30.70
2023-01-20T18:23:22.465Z,27.73
2023-01-20T18:28:24.503Z,31.85
2023-01-20T18:33:26.766Z,33.10
2023-01-20T18:38:28.756Z,34.42
2023-01-20T18:43:31.219Z,34.15
2023-01-20T18:48:36.732Z,34.47
2023-01-20T18:53:41.300Z,38.40
2023-01-20T18:58:47.041Z,39.30
2023-01-20T19:03:49.981Z,41.53
2023-01-20T19:08:52.385Z,42.30
2023-01-20T19:13:55.087Z,42.47
2023-01-20T19:18:59.867Z,47.50
2023-01-20T19:24:05.703Z,44.97
2023-01-20T19:29:11.744Z,44.42
2023-01-20T19:34:13.895Z,50.65
2023-01-20T19:39:16.183Z,46.92
2023-01-20T19:44:18.336Z,44.55
2023-01-20T19:49:20.351Z,41.30
2023-01-20T19:54:24.169Z,38.28
2023-01-20T19:59:26.445Z,39.85
2023-01-20T20:04:28.758Z,42.90
2023-01-20T20:09:30.793Z,36.88
2023-01-20T20:14:33.839Z,47.75
2023-01-20T20:19:36.022Z,43.53
2023-01-20T20:24:38.058Z,45.95
2023-01-20T20:29:40.115Z,50.75
2023-01-20T20:34:42.603Z,45.67
2023-01-20T20:39:45.603Z,49.45
2023-01-20T20:44:47.655Z,51.90
2023-01-20T20:49:49.936Z,51.20
2023-01-20T20:54:53.947Z,52.17
2023-01-20T20:59:59.298Z,52.25
2023-01-20T21:05:01.932Z,61.17
2023-01-20T21:10:04.863Z,60.22
2023-01-20T21:15:07.490Z,61.30
2023-01-20T21:20:10.155Z,60.83
2023-01-20T21:25:12.177Z,70.03
2023-01-20T21:30:14.673Z,69.95
2023-01-20T21:35:16.947Z,72.32
2023-01-20T21:40:19.259Z,71.43
2023-01-20T21:45:22.652Z,69.72
2023-01-20T21:50:43.331Z,64.93
2023-01-20T21:55:45.334Z,67.65
2023-01-20T22:00:49.323Z,64.82
2023-01-20T22:05:51.402Z,73.13
2023-01-20T22:11:03.818Z,61.87
2023-01-20T22:16:06.600Z,61.28
2023-01-20T22:21:08.718Z,72.82
2023-01-20T22:26:11.124Z,71.75
2023-01-20T22:31:19.632Z,72.10
2023-01-20T22:36:22.655Z,71.05
2023-01-20T22:41:25.252Z,64.65
2023-01-20T22:46:29.420Z,69.00
2023-01-20T22:51:31.665Z,67.25
2023-01-20T22:56:33.760Z,67.63
2023-01-20T23:01:35.960Z,71.80
2023-01-20T23:06:38.180Z,73.20
2023-01-20T23:11:41.447Z,62.55
2023-01-20T23:16:43.598Z,66.57
2023-01-20T23:21:48.411Z,69.20
2023-01-20T23:26:53.164Z,67.50
2023-01-20T23:31:55.337Z,71.38
2023-01-20T23:36:57.462Z,70.32
2023-01-20T23:41:59.634Z,70.55
2023-01-20T23:47:01.813Z,75.10
2023-01-20T23:52:04.788Z,67.63
2023-01-20T23:57:07.089Z,72.20
